sensor_id;sensor_type;location;lat;lon;timestamp;P1;durP1;ratioP1;P2;durP2;ratioP2
19043;SDS011;9654;52.302;8.120;2023-05-07T00:00:34;32.80;;;20.30;;
19043;SDS011;9654;52.302;8.120;2023-05-07T00:03:01;30.73;;;20.13;;
19043;SDS011;9654;52.302;8.120;2023-05-07T00:05:27;31.37;;;19.37;;
19043;SDS011;9654;52.302;8.120;2023-05-07T00:07:54;33.37;;;19.43;;
19043;SDS011;9654;52.302;8.120;2023-05-07T00:10:21;32.90;;;19.80;;
19043;SDS011;9654;52.302;8.120;2023-05-07T00:12:49;37.07;;;21.63;;
19043;SDS011;9654;52.302;8.120;2023-05-07T00:15:16;34.37;;;21.07;;
19043;SDS011;9654;52.302;8.120;2023-05-07T00:17:43;38.67;;;22.40;;
19043;SDS011;9654;52.302;8.120;2023-05-07T00:20:10;35.83;;;21.30;;
19043;SDS011;9654;52.302;8.120;2023-05-07T00:22:37;36.37;;;20.73;;
19043;SDS011;9654;52.302;8.120;2023-05-07T00:25:04;35.87;;;22.37;;
19043;SDS011;9654;52.302;8.120;2023-05-07T00:27:32;35.53;;;21.47;;
19043;SDS011;9654;52.302;8.120;2023-05-07T00:30:00;34.30;;;21.83;;
19043;SDS011;9654;52.302;8.120;2023-05-07T00:32:27;35.20;;;21.60;;
19043;SDS011;9654;52.302;8.120;2023-05-07T00:34:53;36.23;;;21.97;;
19043;SDS011;9654;52.302;8.120;2023-05-07T00:37:20;37.37;;;22.50;;
19043;SDS011;9654;52.302;8.120;2023-05-07T00:39:47;34.00;;;21.70;;
19043;SDS011;9654;52.302;8.120;2023-05-07T00:42:14;39.13;;;22.93;;
19043;SDS011;9654;52.302;8.120;2023-05-07T00:44:41;39.60;;;23.57;;
19043;SDS011;9654;52.302;8.120;2023-05-07T00:47:09;39.03;;;23.77;;
19043;SDS011;9654;52.302;8.120;2023-05-07T00:49:38;39.63;;;23.10;;
19043;SDS011;9654;52.302;8.120;2023-05-07T00:52:06;40.70;;;23.50;;
19043;SDS011;9654;52.302;8.120;2023-05-07T00:54:35;43.67;;;24.73;;
19043;SDS011;9654;52.302;8.120;2023-05-07T00:57:03;41.87;;;23.80;;
19043;SDS011;9654;52.302;8.120;2023-05-07T00:59:30;37.47;;;24.53;;
19043;SDS011;9654;52.302;8.120;2023-05-07T01:01:57;43.30;;;25.10;;
19043;SDS011;9654;52.302;8.120;2023-05-07T01:04:26;40.27;;;24.27;;
19043;SDS011;9654;52.302;8.120;2023-05-07T01:06:53;44.53;;;24.50;;
19043;SDS011;9654;52.302;8.120;2023-05-07T01:09:22;40.87;;;22.13;;
19043;SDS011;9654;52.302;8.120;2023-05-07T01:11:50;43.80;;;25.53;;
19043;SDS011;9654;52.302;8.120;2023-05-07T01:14:18;45.97;;;26.10;;
19043;SDS011;9654;52.302;8.120;2023-05-07T01:16:45;48.90;;;25.77;;
19043;SDS011;9654;52.302;8.120;2023-05-07T01:19:12;45.20;;;24.77;;
19043;SDS011;9654;52.302;8.120;2023-05-07T01:21:43;48.77;;;26.20;;
19043;SDS011;9654;52.302;8.120;2023-05-07T01:24:13;49.37;;;26.97;;
19043;SDS011;9654;52.302;8.120;2023-05-07T01:26:41;49.00;;;27.27;;
19043;SDS011;9654;52.302;8.120;2023-05-07T01:29:08;50.77;;;28.07;;
19043;SDS011;9654;52.302;8.120;2023-05-07T01:31:35;49.77;;;28.07;;
19043;SDS011;9654;52.302;8.120;2023-05-07T01:34:03;54.00;;;28.77;;
19043;SDS011;9654;52.302;8.120;2023-05-07T01:36:31;54.43;;;29.20;;
19043;SDS011;9654;52.302;8.120;2023-05-07T01:38:59;49.23;;;27.23;;
19043;SDS011;9654;52.302;8.120;2023-05-07T01:41:27;52.87;;;29.03;;
19043;SDS011;9654;52.302;8.120;2023-05-07T01:43:54;54.77;;;28.63;;
19043;SDS011;9654;52.302;8.120;2023-05-07T01:46:23;51.77;;;28.70;;
19043;SDS011;9654;52.302;8.120;2023-05-07T01:48:52;54.30;;;28.37;;
19043;SDS011;9654;52.302;8.120;2023-05-07T01:53:52;55.93;;;29.33;;
19043;SDS011;9654;52.302;8.120;2023-05-07T01:56:38;57.63;;;29.23;;
19043;SDS011;9654;52.302;8.120;2023-05-07T01:59:04;51.70;;;29.47;;
19043;SDS011;9654;52.302;8.120;2023-05-07T02:01:31;55.10;;;30.20;;
19043;SDS011;9654;52.302;8.120;2023-05-07T02:03:58;53.97;;;32.07;;
19043;SDS011;9654;52.302;8.120;2023-05-07T02:06:25;53.27;;;30.63;;
19043;SDS011;9654;52.302;8.120;2023-05-07T02:08:51;60.77;;;30.13;;
19043;SDS011;9654;52.302;8.120;2023-05-07T02:11:18;54.33;;;29.83;;
19043;SDS011;9654;52.302;8.120;2023-05-07T02:13:46;58.40;;;31.33;;
19043;SDS011;9654;52.302;8.120;2023-05-07T02:16:13;59.87;;;31.43;;
19043;SDS011;9654;52.302;8.120;2023-05-07T02:18:40;56.10;;;31.03;;
19043;SDS011;9654;52.302;8.120;2023-05-07T02:21:07;56.33;;;31.43;;
19043;SDS011;9654;52.302;8.120;2023-05-07T02:23:33;57.80;;;32.80;;
19043;SDS011;9654;52.302;8.120;2023-05-07T02:26:00;60.40;;;31.83;;
19043;SDS011;9654;52.302;8.120;2023-05-07T02:28:27;61.00;;;32.37;;
19043;SDS011;9654;52.302;8.120;2023-05-07T02:30:55;56.23;;;30.13;;
19043;SDS011;9654;52.302;8.120;2023-05-07T02:33:23;56.93;;;30.07;;
19043;SDS011;9654;52.302;8.120;2023-05-07T02:35:51;54.10;;;30.27;;
19043;SDS011;9654;52.302;8.120;2023-05-07T02:38:18;51.10;;;31.03;;
19043;SDS011;9654;52.302;8.120;2023-05-07T02:40:45;54.37;;;31.33;;
19043;SDS011;9654;52.302;8.120;2023-05-07T02:43:11;59.10;;;33.53;;
19043;SDS011;9654;52.302;8.120;2023-05-07T02:45:38;57.80;;;32.00;;
19043;SDS011;9654;52.302;8.120;2023-05-07T02:48:06;64.30;;;33.13;;
19043;SDS011;9654;52.302;8.120;2023-05-07T02:50:33;62.60;;;33.33;;
19043;SDS011;9654;52.302;8.120;2023-05-07T02:53:00;58.07;;;32.30;;
19043;SDS011;9654;52.302;8.120;2023-05-07T02:55:27;63.20;;;33.73;;
19043;SDS011;9654;52.302;8.120;2023-05-07T02:57:54;62.47;;;33.87;;
19043;SDS011;9654;52.302;8.120;2023-05-07T03:00:21;60.90;;;33.80;;
19043;SDS011;9654;52.302;8.120;2023-05-07T03:02:48;61.87;;;34.20;;
19043;SDS011;9654;52.302;8.120;2023-05-07T03:05:16;61.00;;;34.60;;
19043;SDS011;9654;52.302;8.120;2023-05-07T03:07:43;67.70;;;35.13;;
19043;SDS011;9654;52.302;8.120;2023-05-07T03:10:11;64.03;;;35.90;;
19043;SDS011;9654;52.302;8.120;2023-05-07T03:12:37;61.90;;;35.23;;
19043;SDS011;9654;52.302;8.120;2023-05-07T03:15:05;61.20;;;34.80;;
19043;SDS011;9654;52.302;8.120;2023-05-07T03:17:33;69.17;;;37.90;;
19043;SDS011;9654;52.302;8.120;2023-05-07T03:19:59;63.23;;;36.00;;
19043;SDS011;9654;52.302;8.120;2023-05-07T03:22:28;72.03;;;36.60;;
19043;SDS011;9654;52.302;8.120;2023-05-07T03:24:54;71.03;;;37.50;;
19043;SDS011;9654;52.302;8.120;2023-05-07T03:27:21;72.20;;;37.13;;
19043;SDS011;9654;52.302;8.120;2023-05-07T03:29:48;67.00;;;36.77;;
19043;SDS011;9654;52.302;8.120;2023-05-07T03:32:15;68.17;;;35.37;;
19043;SDS011;9654;52.302;8.120;2023-05-07T03:34:41;69.30;;;37.80;;
19043;SDS011;9654;52.302;8.120;2023-05-07T03:37:08;68.63;;;36.70;;
19043;SDS011;9654;52.302;8.120;2023-05-07T03:39:36;66.37;;;37.27;;
19043;SDS011;9654;52.302;8.120;2023-05-07T03:42:03;71.90;;;37.70;;
19043;SDS011;9654;52.302;8.120;2023-05-07T03:44:30;74.93;;;39.47;;
19043;SDS011;9654;52.302;8.120;2023-05-07T03:46:57;66.80;;;37.27;;
19043;SDS011;9654;52.302;8.120;2023-05-07T03:49:23;70.70;;;37.70;;
19043;SDS011;9654;52.302;8.120;2023-05-07T03:51:50;68.33;;;37.23;;
19043;SDS011;9654;52.302;8.120;2023-05-07T03:54:17;73.70;;;38.43;;
19043;SDS011;9654;52.302;8.120;2023-05-07T03:56:45;64.63;;;36.10;;
19043;SDS011;9654;52.302;8.120;2023-05-07T03:59:12;73.43;;;38.93;;
19043;SDS011;9654;52.302;8.120;2023-05-07T04:01:39;69.53;;;37.80;;
19043;SDS011;9654;52.302;8.120;2023-05-07T04:04:06;69.63;;;36.77;;
19043;SDS011;9654;52.302;8.120;2023-05-07T04:06:33;73.00;;;38.80;;
19043;SDS011;9654;52.302;8.120;2023-05-07T04:09:00;68.60;;;36.80;;
19043;SDS011;9654;52.302;8.120;2023-05-07T04:11:27;72.53;;;37.10;;
19043;SDS011;9654;52.302;8.120;2023-05-07T04:13:55;71.43;;;38.53;;
19043;SDS011;9654;52.302;8.120;2023-05-07T04:16:22;69.57;;;35.73;;
19043;SDS011;9654;52.302;8.120;2023-05-07T04:18:48;69.23;;;36.47;;
19043;SDS011;9654;52.302;8.120;2023-05-07T04:21:15;66.63;;;36.60;;
19043;SDS011;9654;52.302;8.120;2023-05-07T04:23:43;69.77;;;36.93;;
19043;SDS011;9654;52.302;8.120;2023-05-07T04:26:10;69.50;;;38.90;;
19043;SDS011;9654;52.302;8.120;2023-05-07T04:28:37;70.57;;;37.30;;
19043;SDS011;9654;52.302;8.120;2023-05-07T04:31:06;69.63;;;35.93;;
19043;SDS011;9654;52.302;8.120;2023-05-07T04:33:33;67.33;;;35.57;;
19043;SDS011;9654;52.302;8.120;2023-05-07T04:36:01;67.13;;;35.20;;
19043;SDS011;9654;52.302;8.120;2023-05-07T04:38:29;67.10;;;35.27;;
19043;SDS011;9654;52.302;8.120;2023-05-07T04:40:56;74.80;;;36.93;;
19043;SDS011;9654;52.302;8.120;2023-05-07T04:43:23;71.07;;;36.30;;
19043;SDS011;9654;52.302;8.120;2023-05-07T04:45:50;70.73;;;36.17;;
19043;SDS011;9654;52.302;8.120;2023-05-07T04:48:18;64.80;;;35.10;;
19043;SDS011;9654;52.302;8.120;2023-05-07T04:50:47;67.40;;;35.10;;
19043;SDS011;9654;52.302;8.120;2023-05-07T04:53:14;70.60;;;35.83;;
19043;SDS011;9654;52.302;8.120;2023-05-07T04:55:41;74.23;;;36.20;;
19043;SDS011;9654;52.302;8.120;2023-05-07T04:58:08;70.40;;;36.80;;
19043;SDS011;9654;52.302;8.120;2023-05-07T05:00:35;72.77;;;35.40;;
19043;SDS011;9654;52.302;8.120;2023-05-07T05:03:02;69.13;;;35.17;;
19043;SDS011;9654;52.302;8.120;2023-05-07T05:05:31;69.33;;;35.63;;
19043;SDS011;9654;52.302;8.120;2023-05-07T05:07:58;69.20;;;36.53;;
19043;SDS011;9654;52.302;8.120;2023-05-07T05:10:25;66.30;;;35.00;;
19043;SDS011;9654;52.302;8.120;2023-05-07T05:12:51;64.63;;;34.07;;
19043;SDS011;9654;52.302;8.120;2023-05-07T05:15:18;65.93;;;34.87;;
19043;SDS011;9654;52.302;8.120;2023-05-07T05:17:45;69.57;;;35.53;;
19043;SDS011;9654;52.302;8.120;2023-05-07T05:20:12;64.27;;;34.43;;
19043;SDS011;9654;52.302;8.120;2023-05-07T05:22:40;70.00;;;35.93;;
19043;SDS011;9654;52.302;8.120;2023-05-07T05:25:07;60.60;;;32.77;;
19043;SDS011;9654;52.302;8.120;2023-05-07T05:27:34;62.23;;;32.37;;
19043;SDS011;9654;52.302;8.120;2023-05-07T05:30:01;61.53;;;33.13;;
19043;SDS011;9654;52.302;8.120;2023-05-07T05:32:29;58.90;;;31.87;;
19043;SDS011;9654;52.302;8.120;2023-05-07T05:34:56;62.20;;;32.17;;
19043;SDS011;9654;52.302;8.120;2023-05-07T05:37:22;62.23;;;33.47;;
19043;SDS011;9654;52.302;8.120;2023-05-07T05:39:51;62.37;;;31.97;;
19043;SDS011;9654;52.302;8.120;2023-05-07T05:42:19;63.73;;;32.77;;
19043;SDS011;9654;52.302;8.120;2023-05-07T05:44:46;59.43;;;30.50;;
19043;SDS011;9654;52.302;8.120;2023-05-07T05:47:13;63.83;;;32.80;;
19043;SDS011;9654;52.302;8.120;2023-05-07T05:49:40;56.50;;;32.37;;
19043;SDS011;9654;52.302;8.120;2023-05-07T05:52:08;56.63;;;32.13;;
19043;SDS011;9654;52.302;8.120;2023-05-07T05:54:35;61.20;;;31.90;;
19043;SDS011;9654;52.302;8.120;2023-05-07T05:57:03;55.87;;;30.93;;
19043;SDS011;9654;52.302;8.120;2023-05-07T05:59:31;60.67;;;31.93;;
19043;SDS011;9654;52.302;8.120;2023-05-07T06:01:57;58.20;;;30.97;;
19043;SDS011;9654;52.302;8.120;2023-05-07T06:04:24;59.80;;;30.43;;
19043;SDS011;9654;52.302;8.120;2023-05-07T06:06:51;56.93;;;29.40;;
19043;SDS011;9654;52.302;8.120;2023-05-07T06:09:18;54.17;;;29.47;;
19043;SDS011;9654;52.302;8.120;2023-05-07T06:11:45;56.97;;;30.97;;
19043;SDS011;9654;52.302;8.120;2023-05-07T06:14:13;56.37;;;30.77;;
19043;SDS011;9654;52.302;8.120;2023-05-07T06:16:40;55.00;;;29.07;;
19043;SDS011;9654;52.302;8.120;2023-05-07T06:19:07;52.20;;;29.20;;
19043;SDS011;9654;52.302;8.120;2023-05-07T06:21:33;56.60;;;29.93;;
19043;SDS011;9654;52.302;8.120;2023-05-07T06:24:00;50.43;;;28.37;;
19043;SDS011;9654;52.302;8.120;2023-05-07T06:26:27;46.43;;;27.27;;
19043;SDS011;9654;52.302;8.120;2023-05-07T06:28:54;47.17;;;27.27;;
19043;SDS011;9654;52.302;8.120;2023-05-07T06:31:22;50.73;;;27.23;;
19043;SDS011;9654;52.302;8.120;2023-05-07T06:33:49;54.30;;;27.93;;
19043;SDS011;9654;52.302;8.120;2023-05-07T06:36:15;48.83;;;27.03;;
19043;SDS011;9654;52.302;8.120;2023-05-07T06:38:42;44.00;;;26.30;;
19043;SDS011;9654;52.302;8.120;2023-05-07T06:41:09;45.70;;;25.37;;
19043;SDS011;9654;52.302;8.120;2023-05-07T06:43:36;45.83;;;25.70;;
19043;SDS011;9654;52.302;8.120;2023-05-07T06:46:03;44.97;;;26.07;;
19043;SDS011;9654;52.302;8.120;2023-05-07T06:48:31;45.47;;;25.60;;
19043;SDS011;9654;52.302;8.120;2023-05-07T06:50:58;43.07;;;24.57;;
19043;SDS011;9654;52.302;8.120;2023-05-07T06:53:25;47.00;;;26.37;;
19043;SDS011;9654;52.302;8.120;2023-05-07T06:55:53;45.93;;;25.17;;
19043;SDS011;9654;52.302;8.120;2023-05-07T06:58:20;42.07;;;25.53;;
19043;SDS011;9654;52.302;8.120;2023-05-07T07:00:46;41.90;;;23.33;;
19043;SDS011;9654;52.302;8.120;2023-05-07T07:03:13;40.30;;;23.80;;
19043;SDS011;9654;52.302;8.120;2023-05-07T07:05:42;41.00;;;23.97;;
19043;SDS011;9654;52.302;8.120;2023-05-07T07:08:09;42.93;;;22.90;;
19043;SDS011;9654;52.302;8.120;2023-05-07T07:10:36;38.33;;;22.30;;
19043;SDS011;9654;52.302;8.120;2023-05-07T07:13:03;35.90;;;21.57;;
19043;SDS011;9654;52.302;8.120;2023-05-07T07:15:30;35.50;;;21.07;;
19043;SDS011;9654;52.302;8.120;2023-05-07T07:17:56;34.60;;;21.77;;
19043;SDS011;9654;52.302;8.120;2023-05-07T07:20:23;33.67;;;20.90;;
19043;SDS011;9654;52.302;8.120;2023-05-07T07:22:51;35.20;;;20.43;;
19043;SDS011;9654;52.302;8.120;2023-05-07T07:25:18;34.37;;;20.03;;
19043;SDS011;9654;52.302;8.120;2023-05-07T07:27:45;30.70;;;18.77;;
19043;SDS011;9654;52.302;8.120;2023-05-07T07:30:12;33.20;;;19.87;;
19043;SDS011;9654;52.302;8.120;2023-05-07T07:32:39;33.93;;;20.10;;
19043;SDS011;9654;52.302;8.120;2023-05-07T07:35:06;32.17;;;18.97;;
19043;SDS011;9654;52.302;8.120;2023-05-07T07:37:33;31.70;;;19.30;;
19043;SDS011;9654;52.302;8.120;2023-05-07T07:40:01;29.30;;;18.73;;
19043;SDS011;9654;52.302;8.120;2023-05-07T07:42:29;28.77;;;17.23;;
19043;SDS011;9654;52.302;8.120;2023-05-07T07:44:55;34.77;;;18.00;;
19043;SDS011;9654;52.302;8.120;2023-05-07T07:47:22;30.93;;;18.10;;
19043;SDS011;9654;52.302;8.120;2023-05-07T07:49:49;28.80;;;17.43;;
19043;SDS011;9654;52.302;8.120;2023-05-07T07:52:16;27.80;;;16.87;;
19043;SDS011;9654;52.302;8.120;2023-05-07T07:54:42;26.17;;;16.27;;
19043;SDS011;9654;52.302;8.120;2023-05-07T07:57:11;25.07;;;16.47;;
19043;SDS011;9654;52.302;8.120;2023-05-07T07:59:38;31.90;;;17.13;;
19043;SDS011;9654;52.302;8.120;2023-05-07T08:02:07;24.13;;;16.37;;
19043;SDS011;9654;52.302;8.120;2023-05-07T08:04:34;23.30;;;16.00;;
19043;SDS011;9654;52.302;8.120;2023-05-07T08:07:02;26.37;;;16.93;;
19043;SDS011;9654;52.302;8.120;2023-05-07T08:09:28;22.70;;;15.33;;
19043;SDS011;9654;52.302;8.120;2023-05-07T08:11:55;29.10;;;16.43;;
19043;SDS011;9654;52.302;8.120;2023-05-07T08:14:23;25.80;;;16.70;;
19043;SDS011;9654;52.302;8.120;2023-05-07T08:16:50;23.13;;;15.50;;
19043;SDS011;9654;52.302;8.120;2023-05-07T08:19:17;27.57;;;15.47;;
19043;SDS011;9654;52.302;8.120;2023-05-07T08:21:44;24.47;;;15.10;;
19043;SDS011;9654;52.302;8.120;2023-05-07T08:24:12;25.67;;;16.17;;
19043;SDS011;9654;52.302;8.120;2023-05-07T08:26:39;26.20;;;15.80;;
19043;SDS011;9654;52.302;8.120;2023-05-07T08:29:06;25.53;;;15.43;;
19043;SDS011;9654;52.302;8.120;2023-05-07T08:31:35;23.57;;;15.03;;
19043;SDS011;9654;52.302;8.120;2023-05-07T08:34:02;22.27;;;14.43;;
19043;SDS011;9654;52.302;8.120;2023-05-07T08:36:30;23.13;;;14.20;;
19043;SDS011;9654;52.302;8.120;2023-05-07T08:38:57;22.47;;;14.50;;
19043;SDS011;9654;52.302;8.120;2023-05-07T08:41:24;20.80;;;14.20;;
19043;SDS011;9654;52.302;8.120;2023-05-07T08:43:51;21.13;;;13.50;;
19043;SDS011;9654;52.302;8.120;2023-05-07T08:46:20;22.70;;;14.67;;
19043;SDS011;9654;52.302;8.120;2023-05-07T08:48:49;21.63;;;14.00;;
19043;SDS011;9654;52.302;8.120;2023-05-07T08:51:17;22.43;;;14.07;;
19043;SDS011;9654;52.302;8.120;2023-05-07T08:53:45;21.90;;;13.70;;
19043;SDS011;9654;52.302;8.120;2023-05-07T08:56:14;20.83;;;13.40;;
19043;SDS011;9654;52.302;8.120;2023-05-07T08:58:41;21.47;;;14.00;;
19043;SDS011;9654;52.302;8.120;2023-05-07T09:01:09;19.73;;;12.90;;
19043;SDS011;9654;52.302;8.120;2023-05-07T09:03:38;20.83;;;13.77;;
19043;SDS011;9654;52.302;8.120;2023-05-07T09:06:07;21.53;;;13.30;;
19043;SDS011;9654;52.302;8.120;2023-05-07T09:08:35;19.27;;;12.63;;
19043;SDS011;9654;52.302;8.120;2023-05-07T09:11:02;20.10;;;12.93;;
19043;SDS011;9654;52.302;8.120;2023-05-07T09:13:29;21.50;;;13.20;;
19043;SDS011;9654;52.302;8.120;2023-05-07T09:15:56;17.93;;;11.73;;
19043;SDS011;9654;52.302;8.120;2023-05-07T09:18:23;20.50;;;12.47;;
19043;SDS011;9654;52.302;8.120;2023-05-07T09:20:51;18.93;;;12.70;;
19043;SDS011;9654;52.302;8.120;2023-05-07T09:23:19;17.67;;;11.97;;
19043;SDS011;9654;52.302;8.120;2023-05-07T09:25:47;17.57;;;11.80;;
19043;SDS011;9654;52.302;8.120;2023-05-07T09:28:14;17.40;;;11.73;;
19043;SDS011;9654;52.302;8.120;2023-05-07T09:30:41;16.60;;;11.47;;
19043;SDS011;9654;52.302;8.120;2023-05-07T09:33:08;17.60;;;12.43;;
19043;SDS011;9654;52.302;8.120;2023-05-07T09:35:35;16.33;;;10.73;;
19043;SDS011;9654;52.302;8.120;2023-05-07T09:38:03;17.80;;;11.07;;
19043;SDS011;9654;52.302;8.120;2023-05-07T09:40:31;16.17;;;11.77;;
19043;SDS011;9654;52.302;8.120;2023-05-07T09:43:08;17.33;;;11.70;;
19043;SDS011;9654;52.302;8.120;2023-05-07T09:45:36;16.53;;;11.10;;
19043;SDS011;9654;52.302;8.120;2023-05-07T09:48:04;15.83;;;11.07;;
19043;SDS011;9654;52.302;8.120;2023-05-07T09:50:32;15.00;;;10.83;;
19043;SDS011;9654;52.302;8.120;2023-05-07T09:53:03;18.30;;;12.17;;
19043;SDS011;9654;52.302;8.120;2023-05-07T09:55:30;15.60;;;11.37;;
19043;SDS011;9654;52.302;8.120;2023-05-07T09:57:58;17.63;;;11.37;;
19043;SDS011;9654;52.302;8.120;2023-05-07T10:00:27;15.27;;;11.47;;
19043;SDS011;9654;52.302;8.120;2023-05-07T10:02:55;15.43;;;10.67;;
19043;SDS011;9654;52.302;8.120;2023-05-07T10:05:23;16.97;;;11.20;;
19043;SDS011;9654;52.302;8.120;2023-05-07T10:07:51;14.90;;;11.00;;
19043;SDS011;9654;52.302;8.120;2023-05-07T10:10:19;16.87;;;11.20;;
19043;SDS011;9654;52.302;8.120;2023-05-07T10:12:48;13.77;;;10.17;;
19043;SDS011;9654;52.302;8.120;2023-05-07T10:15:16;15.83;;;10.70;;
19043;SDS011;9654;52.302;8.120;2023-05-07T10:17:43;16.83;;;10.23;;
19043;SDS011;9654;52.302;8.120;2023-05-07T10:20:10;12.33;;;9.47;;
19043;SDS011;9654;52.302;8.120;2023-05-07T10:22:38;14.53;;;9.77;;
19043;SDS011;9654;52.302;8.120;2023-05-07T10:25:09;14.00;;;9.90;;
19043;SDS011;9654;52.302;8.120;2023-05-07T10:27:42;13.67;;;9.60;;
19043;SDS011;9654;52.302;8.120;2023-05-07T10:30:15;14.10;;;9.73;;
19043;SDS011;9654;52.302;8.120;2023-05-07T10:32:49;12.77;;;9.10;;
19043;SDS011;9654;52.302;8.120;2023-05-07T10:35:20;14.33;;;10.23;;
19043;SDS011;9654;52.302;8.120;2023-05-07T10:37:49;13.90;;;9.60;;
19043;SDS011;9654;52.302;8.120;2023-05-07T10:40:17;13.87;;;9.67;;
19043;SDS011;9654;52.302;8.120;2023-05-07T10:42:54;13.40;;;9.63;;
19043;SDS011;9654;52.302;8.120;2023-05-07T10:45:23;11.70;;;8.77;;
19043;SDS011;9654;52.302;8.120;2023-05-07T10:48:06;11.23;;;9.00;;
19043;SDS011;9654;52.302;8.120;2023-05-07T10:50:34;10.53;;;7.87;;
19043;SDS011;9654;52.302;8.120;2023-05-07T10:53:20;10.13;;;8.27;;
19043;SDS011;9654;52.302;8.120;2023-05-07T10:55:51;11.03;;;8.63;;
19043;SDS011;9654;52.302;8.120;2023-05-07T10:58:39;12.27;;;7.83;;
19043;SDS011;9654;52.302;8.120;2023-05-07T11:01:08;10.60;;;8.33;;
19043;SDS011;9654;52.302;8.120;2023-05-07T11:03:36;11.80;;;8.50;;
19043;SDS011;9654;52.302;8.120;2023-05-07T11:06:43;10.67;;;8.33;;
19043;SDS011;9654;52.302;8.120;2023-05-07T11:09:54;10.47;;;8.20;;
19043;SDS011;9654;52.302;8.120;2023-05-07T11:15:37;11.47;;;7.77;;
19043;SDS011;9654;52.302;8.120;2023-05-07T11:18:09;9.97;;;7.87;;
19043;SDS011;9654;52.302;8.120;2023-05-07T11:20:48;10.60;;;7.87;;
19043;SDS011;9654;52.302;8.120;2023-05-07T11:26:23;9.23;;;7.73;;
19043;SDS011;9654;52.302;8.120;2023-05-07T11:28:51;13.17;;;9.30;;
19043;SDS011;9654;52.302;8.120;2023-05-07T11:31:21;10.47;;;7.63;;
19043;SDS011;9654;52.302;8.120;2023-05-07T11:33:53;13.53;;;7.90;;
19043;SDS011;9654;52.302;8.120;2023-05-07T11:36:22;10.43;;;7.67;;
19043;SDS011;9654;52.302;8.120;2023-05-07T11:38:50;11.13;;;7.03;;
19043;SDS011;9654;52.302;8.120;2023-05-07T11:41:17;11.83;;;7.93;;
19043;SDS011;9654;52.302;8.120;2023-05-07T11:43:58;8.70;;;7.00;;
19043;SDS011;9654;52.302;8.120;2023-05-07T11:46:26;11.60;;;7.60;;
19043;SDS011;9654;52.302;8.120;2023-05-07T11:48:55;9.33;;;7.30;;
19043;SDS011;9654;52.302;8.120;2023-05-07T11:51:22;10.47;;;7.30;;
19043;SDS011;9654;52.302;8.120;2023-05-07T11:53:51;7.50;;;6.37;;
19043;SDS011;9654;52.302;8.120;2023-05-07T11:56:18;7.93;;;6.33;;
19043;SDS011;9654;52.302;8.120;2023-05-07T11:58:46;10.33;;;6.93;;
19043;SDS011;9654;52.302;8.120;2023-05-07T12:01:14;12.97;;;7.20;;
19043;SDS011;9654;52.302;8.120;2023-05-07T12:03:45;8.90;;;6.77;;
19043;SDS011;9654;52.302;8.120;2023-05-07T12:06:14;8.33;;;7.13;;
19043;SDS011;9654;52.302;8.120;2023-05-07T12:08:42;10.33;;;7.27;;
19043;SDS011;9654;52.302;8.120;2023-05-07T12:11:14;8.97;;;6.97;;
19043;SDS011;9654;52.302;8.120;2023-05-07T12:13:43;10.80;;;8.63;;
19043;SDS011;9654;52.302;8.120;2023-05-07T12:16:10;13.30;;;9.80;;
19043;SDS011;9654;52.302;8.120;2023-05-07T12:18:37;11.27;;;8.33;;
19043;SDS011;9654;52.302;8.120;2023-05-07T12:21:04;10.17;;;7.97;;
19043;SDS011;9654;52.302;8.120;2023-05-07T12:23:34;10.00;;;7.40;;
19043;SDS011;9654;52.302;8.120;2023-05-07T12:26:02;10.67;;;6.97;;
19043;SDS011;9654;52.302;8.120;2023-05-07T12:28:29;10.70;;;7.40;;
19043;SDS011;9654;52.302;8.120;2023-05-07T12:30:57;9.40;;;7.43;;
19043;SDS011;9654;52.302;8.120;2023-05-07T12:33:24;10.20;;;7.90;;
19043;SDS011;9654;52.302;8.120;2023-05-07T12:35:53;12.80;;;8.83;;
19043;SDS011;9654;52.302;8.120;2023-05-07T12:38:21;12.10;;;8.80;;
19043;SDS011;9654;52.302;8.120;2023-05-07T12:40:50;11.57;;;7.47;;
19043;SDS011;9654;52.302;8.120;2023-05-07T12:43:21;9.73;;;6.73;;
19043;SDS011;9654;52.302;8.120;2023-05-07T12:45:50;9.17;;;7.37;;
19043;SDS011;9654;52.302;8.120;2023-05-07T12:48:19;8.83;;;6.90;;
19043;SDS011;9654;52.302;8.120;2023-05-07T12:50:48;7.80;;;6.30;;
19043;SDS011;9654;52.302;8.120;2023-05-07T12:53:15;8.80;;;7.33;;
19043;SDS011;9654;52.302;8.120;2023-05-07T12:55:42;9.23;;;6.93;;
19043;SDS011;9654;52.302;8.120;2023-05-07T12:58:15;10.83;;;7.07;;
19043;SDS011;9654;52.302;8.120;2023-05-07T13:00:43;10.90;;;7.10;;
19043;SDS011;9654;52.302;8.120;2023-05-07T13:03:10;8.83;;;7.37;;
19043;SDS011;9654;52.302;8.120;2023-05-07T13:05:37;8.70;;;7.00;;
19043;SDS011;9654;52.302;8.120;2023-05-07T13:08:05;8.50;;;6.93;;
19043;SDS011;9654;52.302;8.120;2023-05-07T13:10:32;9.07;;;6.40;;
19043;SDS011;9654;52.302;8.120;2023-05-07T13:13:00;8.00;;;6.27;;
19043;SDS011;9654;52.302;8.120;2023-05-07T13:15:28;7.30;;;6.13;;
19043;SDS011;9654;52.302;8.120;2023-05-07T13:17:55;8.50;;;6.20;;
19043;SDS011;9654;52.302;8.120;2023-05-07T13:20:21;9.13;;;6.20;;
19043;SDS011;9654;52.302;8.120;2023-05-07T13:22:48;7.70;;;5.70;;
19043;SDS011;9654;52.302;8.120;2023-05-07T13:25:15;6.60;;;5.90;;
19043;SDS011;9654;52.302;8.120;2023-05-07T13:27:42;9.07;;;6.40;;
19043;SDS011;9654;52.302;8.120;2023-05-07T13:30:09;8.27;;;6.27;;
19043;SDS011;9654;52.302;8.120;2023-05-07T13:32:37;6.63;;;5.87;;
19043;SDS011;9654;52.302;8.120;2023-05-07T13:35:04;7.20;;;5.83;;
19043;SDS011;9654;52.302;8.120;2023-05-07T13:37:31;7.63;;;6.10;;
19043;SDS011;9654;52.302;8.120;2023-05-07T13:39:58;5.93;;;5.20;;
19043;SDS011;9654;52.302;8.120;2023-05-07T13:42:25;5.40;;;4.90;;
19043;SDS011;9654;52.302;8.120;2023-05-07T13:44:52;6.33;;;5.33;;
19043;SDS011;9654;52.302;8.120;2023-05-07T13:47:18;7.10;;;5.33;;
19043;SDS011;9654;52.302;8.120;2023-05-07T13:49:47;5.60;;;5.10;;
19043;SDS011;9654;52.302;8.120;2023-05-07T13:52:14;6.27;;;5.60;;
19043;SDS011;9654;52.302;8.120;2023-05-07T13:54:41;6.20;;;5.50;;
19043;SDS011;9654;52.302;8.120;2023-05-07T13:57:08;6.90;;;5.57;;
19043;SDS011;9654;52.302;8.120;2023-05-07T13:59:35;6.73;;;4.67;;
19043;SDS011;9654;52.302;8.120;2023-05-07T14:02:01;5.23;;;4.73;;
19043;SDS011;9654;52.302;8.120;2023-05-07T14:04:30;7.17;;;4.97;;
19043;SDS011;9654;52.302;8.120;2023-05-07T14:06:58;5.27;;;4.77;;
19043;SDS011;9654;52.302;8.120;2023-05-07T14:09:25;5.63;;;4.70;;
19043;SDS011;9654;52.302;8.120;2023-05-07T14:11:52;5.50;;;4.70;;
19043;SDS011;9654;52.302;8.120;2023-05-07T14:14:18;4.67;;;4.27;;
19043;SDS011;9654;52.302;8.120;2023-05-07T14:16:45;5.83;;;3.90;;
19043;SDS011;9654;52.302;8.120;2023-05-07T14:19:12;6.80;;;4.60;;
19043;SDS011;9654;52.302;8.120;2023-05-07T14:21:39;5.03;;;4.53;;
19043;SDS011;9654;52.302;8.120;2023-05-07T14:24:07;5.23;;;4.73;;
19043;SDS011;9654;52.302;8.120;2023-05-07T14:26:34;5.43;;;4.50;;
19043;SDS011;9654;52.302;8.120;2023-05-07T14:29:01;8.17;;;4.47;;
19043;SDS011;9654;52.302;8.120;2023-05-07T14:31:28;4.70;;;4.17;;
19043;SDS011;9654;52.302;8.120;2023-05-07T14:33:55;5.47;;;4.30;;
19043;SDS011;9654;52.302;8.120;2023-05-07T14:36:22;5.53;;;5.03;;
19043;SDS011;9654;52.302;8.120;2023-05-07T14:38:51;4.90;;;4.40;;
19043;SDS011;9654;52.302;8.120;2023-05-07T14:41:20;4.83;;;4.33;;
19043;SDS011;9654;52.302;8.120;2023-05-07T14:43:47;5.00;;;4.50;;
19043;SDS011;9654;52.302;8.120;2023-05-07T14:46:16;4.47;;;4.17;;
19043;SDS011;9654;52.302;8.120;2023-05-07T14:48:43;5.80;;;4.70;;
19043;SDS011;9654;52.302;8.120;2023-05-07T14:51:11;5.63;;;5.03;;
19043;SDS011;9654;52.302;8.120;2023-05-07T14:53:38;5.30;;;4.80;;